• Join FlightAware (Why Join?)
  • Login
  • US Flag 
02:26PM EDT


 

Airport Tracker/Info


-or-


 

Live Flight TrackerFlight Track Log ✈ UAL6858 ✈ 02-Jul-2013 ✈ PHNL - KSFO

Flight Track Log - Related Links

Times and Time Zones

All times are in EDT time to prevent confusion due to time zone crossing. See the UAL6858 flight status page for this flight to view local times or setup timezone preferences in your user account.

Time Position Orientation Groundspeed Altitude Reporting Facility
EDT Latitude Longitude Course Direction KTS MPH feet Rate Location/Type
05:39AM 21.3167 -157.9000 155° Southeast 190 219 1,200  Level Honolulu Center
05:40AM 21.2500 -157.8667 155° Southeast 250 288 3,400 2,820 Climbing Honolulu Center
05:41AM 21.2333 -157.8000 105° East 270 311 7,000 3,420 Climbing Honolulu Center
05:42AM 21.2333 -157.7000 90° East 290 334 10,300 2,220 Climbing Honolulu Center
05:43AM 21.2333 -157.6000 90° East 350 403 11,500 1,980 Climbing Honolulu Center
05:44AM 21.2667 -157.5000 70° East 380 437 14,400 2,280 Climbing Honolulu Center
05:45AM 21.3167 -157.4000 62° Northeast 400 460 16,100 1,920 Climbing Honolulu Center
05:46AM 21.3833 -157.3000 54° Northeast 410 472 18,300 2,220 Climbing Honolulu Center
05:47AM 21.4500 -157.1833 58° Northeast 420 483 20,600 1,980 Climbing Honolulu Center
05:48AM 21.5167 -157.0833 54° Northeast 430 495 22,400 1,740 Climbing Honolulu Center
05:49AM 21.5833 -156.9667 58° Northeast 430 495 24,200 1,500 Climbing Honolulu Center
05:50AM 21.6500 -156.8667 54° Northeast 440 506 25,400 1,080 Climbing Honolulu Center
05:51AM 21.7167 -156.7500 58° Northeast 470 541 26,400 1,200 Climbing Honolulu Center
05:52AM 21.7833 -156.6500 54° Northeast 470 541 27,900 1,680 Climbing Honolulu Center
05:53AM 21.8667 -156.5333 52° Northeast 480 552 29,800 1,740 Climbing Honolulu Center
05:54AM 21.9333 -156.4167 58° Northeast 460 529 31,500 1,620 Climbing Honolulu Center
05:55AM 22.0000 -156.3000 58° Northeast 460 529 33,100 1,500 Climbing Honolulu Center
05:56AM 22.0667 -156.1833 58° Northeast 450 518 34,600 1,380 Climbing Honolulu Center
05:57AM 22.1333 -156.0667 58° Northeast 450 518 36,000 1,320 Climbing Honolulu Center
05:58AM 22.2000 -155.9500 58° Northeast 450 518 37,300 1,140 Climbing Honolulu Center
05:59AM 22.2833 -155.8500 48° Northeast 440 506 38,400 840 Climbing Honolulu Center
06:00AM 22.3500 -155.7333 58° Northeast 440 506 39,000 300 Climbing Honolulu Center
06:01AM 22.4167 -155.6167 58° Northeast 440 506 39,000  Level Honolulu Center
06:02AM 22.4833 -155.5167 54° Northeast 440 506 39,000  Level Honolulu Center
06:03AM 22.5500 -155.4000 58° Northeast 440 506 39,000  Level Honolulu Center
06:04AM 22.6167 -155.2833 58° Northeast 440 506 39,000  Level Honolulu Center
06:05AM 22.6833 -155.1833 54° Northeast 440 506 39,000  Level Honolulu Center
06:07AM 22.8038 -154.9810 57° Northeast  Level FlightAware Approximate
06:14AM 23.2643 -154.2072 57° Northeast  Level FlightAware Approximate
06:15AM 23.3300 -154.0965 57° Northeast  Level FlightAware Approximate
06:16AM 23.3957 -153.9856 57° Northeast  Level FlightAware Approximate
06:17AM 23.4613 -153.8746 57° Northeast  Level FlightAware Approximate
06:18AM 23.5269 -153.7635 57° Northeast  Level FlightAware Approximate
06:19AM 23.5923 -153.6523 57° Northeast  Level FlightAware Approximate
06:20AM 23.6577 -153.5409 57° Northeast  Level FlightAware Approximate
06:21AM 23.7230 -153.4295 57° Northeast  Level FlightAware Approximate
06:22AM 23.7909 -153.3209 56° Northeast  Level FlightAware Approximate
06:23AM 23.8577 -153.2104 56° Northeast  Level FlightAware Approximate
06:24AM 23.9245 -153.0999 57° Northeast  Level FlightAware Approximate
06:24AM 23.7833 -153.3667 57° Northeast 452 520 39,000  Level Oakland Oceanic (ODAPS)
06:25AM 23.9912 -152.9892 57° Northeast  Level FlightAware Approximate
06:26AM 24.0579 -152.8784 57° Northeast  Level FlightAware Approximate
06:27AM 24.1244 -152.7675 57° Northeast  Level FlightAware Approximate
06:28AM 24.1909 -152.6565 57° Northeast  Level FlightAware Approximate
06:29AM 24.2573 -152.5454 57° Northeast  Level FlightAware Approximate
06:30AM 24.3984 -152.3272 57° Northeast 452 520 39,000  Level FlightAware Transoceanic
06:31AM 24.4663 -152.2111 57° Northeast 452 520 39,000  Level FlightAware Transoceanic
06:32AM 24.5341 -152.0948 57° Northeast 452 520 39,000  Level FlightAware Transoceanic
06:33AM 24.6018 -151.9785 57° Northeast 452 520 39,000  Level FlightAware Transoceanic
06:34AM 24.6695 -151.8620 57° Northeast 452 520 39,000  Level FlightAware Transoceanic
06:35AM 24.7370 -151.7453 58° Northeast 452 520 39,000  Level FlightAware Transoceanic
06:36AM 24.8045 -151.6286 58° Northeast 452 520 39,000  Level FlightAware Transoceanic
06:37AM 24.8718 -151.5117 58° Northeast 452 520 39,000  Level FlightAware Transoceanic
06:38AM 24.9391 -151.3947 58° Northeast 452 520 39,000  Level FlightAware Transoceanic
06:39AM 25.0063 -151.2776 58° Northeast 452 520 39,000  Level FlightAware Transoceanic
06:40AM 25.0734 -151.1603 58° Northeast 452 520 39,000  Level FlightAware Transoceanic
06:41AM 25.1404 -151.0429 58° Northeast 452 520 39,000  Level FlightAware Transoceanic
06:42AM 25.2073 -150.9254 58° Northeast 452 520 39,000  Level FlightAware Transoceanic
06:43AM 25.2741 -150.8078 58° Northeast 452 520 39,000  Level FlightAware Transoceanic
06:44AM 25.3408 -150.6900 58° Northeast 452 520 39,000  Level FlightAware Transoceanic
06:45AM 25.4075 -150.5721 58° Northeast 452 520 39,000  Level FlightAware Transoceanic
06:46AM 25.4740 -150.4541 58° Northeast 452 520 39,000  Level FlightAware Transoceanic
06:47AM 25.5404 -150.3359 58° Northeast 452 520 39,000  Level FlightAware Transoceanic
06:48AM 25.6068 -150.2176 58° Northeast 452 520 39,000  Level FlightAware Transoceanic
06:49AM 25.6730 -150.0992 58° Northeast 452 520 39,000  Level FlightAware Transoceanic
06:50AM 25.7392 -149.9806 58° Northeast 452 520 39,000  Level FlightAware Transoceanic
06:51AM 25.8052 -149.8619 58° Northeast 452 520 39,000  Level FlightAware Transoceanic
06:52AM 25.8712 -149.7431 58° Northeast 452 520 39,000  Level FlightAware Transoceanic
06:53AM 25.9370 -149.6241 58° Northeast 452 520 39,000  Level FlightAware Transoceanic
06:54AM 26.0028 -149.5051 58° Northeast 452 520 39,000  Level FlightAware Transoceanic
06:55AM 26.0685 -149.3858 59° Northeast 452 520 39,000  Level FlightAware Transoceanic
06:56AM 26.1341 -149.2665 59° Northeast 452 520 39,000  Level FlightAware Transoceanic
06:57AM 26.1995 -149.1470 59° Northeast 452 520 39,000  Level FlightAware Transoceanic
06:58AM 26.2649 -149.0274 59° Northeast 452 520 39,000  Level FlightAware Transoceanic
06:59AM 26.3302 -148.9076 59° Northeast 452 520 39,000  Level FlightAware Transoceanic
07:00AM 26.3953 -148.7877 59° Northeast 452 520 39,000  Level FlightAware Transoceanic
07:01AM 26.4604 -148.6677 59° Northeast 452 520 39,000  Level FlightAware Transoceanic
07:02AM 26.5254 -148.5475 59° Northeast 452 520 39,000  Level FlightAware Transoceanic
07:03AM 26.5903 -148.4272 59° Northeast 452 520 39,000  Level FlightAware Transoceanic
07:04AM 26.6550 -148.3068 59° Northeast 452 520 39,000  Level FlightAware Transoceanic
07:05AM 26.7197 -148.1862 59° Northeast 452 520 39,000  Level FlightAware Transoceanic
07:06AM 26.7843 -148.0655 59° Northeast 452 520 39,000  Level FlightAware Transoceanic
07:07AM 26.8487 -147.9447 59° Northeast 452 520 39,000  Level FlightAware Transoceanic
07:08AM 26.9131 -147.8237 59° Northeast 452 520 39,000  Level FlightAware Transoceanic
07:09AM 26.9773 -147.7025 59° Northeast 452 520 39,000  Level FlightAware Transoceanic
07:10AM 27.0415 -147.5813 59° Northeast 452 520 39,000  Level FlightAware Transoceanic
07:11AM 27.1056 -147.4599 59° Northeast 452 520 39,000  Level FlightAware Transoceanic
07:12AM 27.1695 -147.3383 59° Northeast 452 520 39,000  Level FlightAware Transoceanic
07:13AM 27.2333 -147.2167 59° Northeast 452 520 39,000  Level FlightAware Transoceanic
07:14AM 27.2971 -147.0950 59° Northeast 452 520 39,000  Level FlightAware Transoceanic
07:15AM 27.3608 -146.9733 60° Northeast 452 520 39,000  Level FlightAware Transoceanic
07:16AM 27.4243 -146.8513 60° Northeast 452 520 39,000  Level FlightAware Transoceanic
07:17AM 27.4877 -146.7293 60° Northeast 452 520 39,000  Level FlightAware Transoceanic
07:17AM 27.2333 -147.2167 59° Northeast 452 520 39,000  Level Oakland Oceanic (ODAPS)
07:18AM 27.5511 -146.6071 60° Northeast 452 520 39,000  Level FlightAware Transoceanic
07:19AM 27.6143 -146.4847 60° Northeast 452 520 39,000  Level FlightAware Transoceanic
07:20AM 27.6774 -146.3623 60° Northeast 452 520 39,000  Level FlightAware Transoceanic
07:21AM 27.7404 -146.2396 60° Northeast 452 520 39,000  Level FlightAware Transoceanic
07:22AM 27.8034 -146.1169 60° Northeast 452 520 39,000  Level FlightAware Transoceanic
07:23AM 27.8034 -146.1169 60° Northeast 452 520 39,000  Level FlightAware Transoceanic
07:24AM 27.8662 -145.9940 60° Northeast 452 520 39,000  Level FlightAware Transoceanic
07:25AM 27.9289 -145.8709 60° Northeast 452 520 39,000  Level FlightAware Transoceanic
07:26AM 27.9914 -145.7477 60° Northeast 452 520 39,000  Level FlightAware Transoceanic
07:27AM 28.0539 -145.6244 60° Northeast 452 520 39,000  Level FlightAware Transoceanic
07:28AM 28.1163 -145.5009 60° Northeast 452 520 39,000  Level FlightAware Transoceanic
07:29AM 28.1785 -145.3773 60° Northeast 452 520 39,000  Level FlightAware Transoceanic
07:30AM 28.2407 -145.2536 60° Northeast 452 520 39,000  Level FlightAware Transoceanic
07:31AM 28.3027 -145.1296 60° Northeast 452 520 39,000  Level FlightAware Transoceanic
07:32AM 28.3646 -145.0056 60° Northeast 452 520 39,000  Level FlightAware Transoceanic
07:33AM 28.4264 -144.8814 61° Northeast 452 520 39,000  Level FlightAware Transoceanic
07:34AM 28.4881 -144.7570 61° Northeast 452 520 39,000  Level FlightAware Transoceanic
07:35AM 28.5497 -144.6326 61° Northeast 452 520 39,000  Level FlightAware Transoceanic
07:36AM 28.6111 -144.5079 61° Northeast 452 520 39,000  Level FlightAware Transoceanic
07:37AM 28.6725 -144.3831 61° Northeast 452 520 39,000  Level FlightAware Transoceanic
07:38AM 28.7337 -144.2582 61° Northeast 452 520 39,000  Level FlightAware Transoceanic
07:39AM 28.7948 -144.1331 61° Northeast 452 520 39,000  Level FlightAware Transoceanic
07:40AM 28.8558 -144.0079 61° Northeast 452 520 39,000  Level FlightAware Transoceanic
07:41AM 28.9167 -143.8826 61° Northeast 452 520 39,000  Level FlightAware Transoceanic
07:42AM 28.9775 -143.7571 61° Northeast 452 520 39,000  Level FlightAware Transoceanic
07:43AM 29.0381 -143.6314 61° Northeast 452 520 39,000  Level FlightAware Transoceanic
07:44AM 29.0987 -143.5056 61° Northeast 452 520 39,000  Level FlightAware Transoceanic
07:45AM 29.1591 -143.3796 61° Northeast 452 520 39,000  Level FlightAware Transoceanic
07:46AM 29.2194 -143.2535 61° Northeast 452 520 39,000  Level FlightAware Transoceanic
07:47AM 29.2796 -143.1273 61° Northeast 452 520 39,000  Level FlightAware Transoceanic
07:48AM 29.3396 -143.0009 61° Northeast 452 520 39,000  Level FlightAware Transoceanic
07:49AM 29.3996 -142.8743 62° Northeast 452 520 39,000  Level FlightAware Transoceanic
07:50AM 29.4594 -142.7476 62° Northeast 452 520 39,000  Level FlightAware Transoceanic
07:51AM 29.5191 -142.6208 62° Northeast 452 520 39,000  Level FlightAware Transoceanic
07:52AM 29.5787 -142.4938 62° Northeast 452 520 39,000  Level FlightAware Transoceanic
07:53AM 29.6382 -142.3667 62° Northeast 452 520 39,000  Level FlightAware Transoceanic
07:54AM 29.6975 -142.2393 62° Northeast 452 520 39,000  Level FlightAware Transoceanic
07:55AM 29.7567 -142.1119 62° Northeast 452 520 39,000  Level FlightAware Transoceanic
07:56AM 29.8158 -141.9843 62° Northeast 452 520 39,000  Level FlightAware Transoceanic
07:57AM 29.8748 -141.8566 62° Northeast 452 520 39,000  Level FlightAware Transoceanic
07:58AM 29.9337 -141.7287 62° Northeast 452 520 39,000  Level FlightAware Transoceanic
07:59AM 29.9924 -141.6006 62° Northeast 452 520 39,000  Level FlightAware Transoceanic
08:00AM 30.0510 -141.4724 62° Northeast 452 520 39,000  Level FlightAware Transoceanic
08:01AM 30.1095 -141.3441 62° Northeast 452 520 39,000  Level FlightAware Transoceanic
08:02AM 30.1678 -141.2155 62° Northeast 452 520 39,000  Level FlightAware Transoceanic
08:03AM 30.2261 -141.0869 62° Northeast 452 520 39,000  Level FlightAware Transoceanic
08:04AM 30.2842 -140.9581 62° Northeast 452 520 39,000  Level FlightAware Transoceanic
08:05AM 30.3421 -140.8291 63° Northeast 452 520 39,000  Level FlightAware Transoceanic
08:06AM 30.4000 -140.7000 63° Northeast 452 520 39,000  Level FlightAware Transoceanic
08:07AM 30.4579 -140.5704 63° Northeast 452 520 39,000  Level FlightAware Transoceanic
08:08AM 30.5158 -140.4407 63° Northeast 452 520 39,000  Level FlightAware Transoceanic
08:09AM 30.5734 -140.3108 63° Northeast 452 520 39,000  Level FlightAware Transoceanic
08:10AM 30.6310 -140.1808 63° Northeast 452 520 39,000  Level FlightAware Transoceanic
08:11AM 30.6884 -140.0506 63° Northeast 452 520 39,000  Level FlightAware Transoceanic
08:12AM 30.7457 -139.9202 63° Northeast 452 520 39,000  Level FlightAware Transoceanic
08:13AM 30.8029 -139.7897 63° Northeast 452 520 39,000  Level FlightAware Transoceanic
08:14AM 30.8599 -139.6591 63° Northeast 452 520 39,000  Level FlightAware Transoceanic
08:15AM 30.9168 -139.5283 63° Northeast 452 520 39,000  Level FlightAware Transoceanic
08:16AM 30.9736 -139.3973 63° Northeast 452 520 39,000  Level FlightAware Transoceanic
08:17AM 31.0302 -139.2662 63° Northeast 452 520 39,000  Level FlightAware Transoceanic
08:18AM 31.0867 -139.1349 63° Northeast 452 520 39,000  Level FlightAware Transoceanic
08:19AM 31.1430 -139.0035 63° Northeast 452 520 39,000  Level FlightAware Transoceanic
08:20AM 31.1993 -138.8719 63° Northeast 452 520 39,000  Level FlightAware Transoceanic
08:21AM 31.2554 -138.7401 64° Northeast 452 520 39,000  Level FlightAware Transoceanic
08:22AM 31.3113 -138.6082 64° Northeast 452 520 39,000  Level FlightAware Transoceanic
08:23AM 31.3672 -138.4762 64° Northeast 452 520 39,000  Level FlightAware Transoceanic
08:24AM 31.4229 -138.3439 64° Northeast 452 520 39,000  Level FlightAware Transoceanic
08:25AM 31.4784 -138.2116 64° Northeast 452 520 39,000  Level FlightAware Transoceanic
08:26AM 31.5339 -138.0791 64° Northeast 452 520 39,000  Level FlightAware Transoceanic
08:27AM 31.5891 -137.9464 64° Northeast 452 520 39,000  Level FlightAware Transoceanic
08:28AM 31.6443 -137.8135 64° Northeast 452 520 39,000  Level FlightAware Transoceanic
08:29AM 31.6993 -137.6805 64° Northeast 452 520 39,000  Level FlightAware Transoceanic
08:30AM 31.7542 -137.5473 64° Northeast 452 520 39,000  Level FlightAware Transoceanic
08:31AM 31.8089 -137.4140 64° Northeast 452 520 39,000  Level FlightAware Transoceanic
08:32AM 31.8635 -137.2806 64° Northeast 452 520 39,000  Level FlightAware Transoceanic
08:33AM 31.9180 -137.1469 64° Northeast 452 520 39,000  Level FlightAware Transoceanic
08:34AM 31.9723 -137.0131 64° Northeast 452 520 39,000  Level FlightAware Transoceanic
08:35AM 32.0265 -136.8792 65° Northeast 452 520 39,000  Level FlightAware Transoceanic
08:36AM 32.0805 -136.7451 65° Northeast 452 520 39,000  Level FlightAware Transoceanic
08:37AM 32.1344 -136.6108 65° Northeast 452 520 39,000  Level FlightAware Transoceanic
08:38AM 32.1881 -136.4764 65° Northeast 452 520 39,000  Level FlightAware Transoceanic
08:39AM 32.2418 -136.3418 65° Northeast 452 520 39,000  Level FlightAware Transoceanic
08:40AM 32.2952 -136.2070 65° Northeast 452 520 39,000  Level FlightAware Transoceanic
08:41AM 32.3485 -136.0721 65° Northeast 452 520 39,000  Level FlightAware Transoceanic
08:42AM 32.4017 -135.9371 65° Northeast 452 520 39,000  Level FlightAware Transoceanic
08:43AM 32.4548 -135.8019 65° Northeast 452 520 39,000  Level FlightAware Transoceanic
08:44AM 32.5076 -135.6665 65° Northeast 452 520 39,000  Level FlightAware Transoceanic
08:45AM 32.5604 -135.5309 65° Northeast 452 520 39,000  Level FlightAware Transoceanic
08:46AM 32.6130 -135.3952 65° Northeast 452 520 39,000  Level FlightAware Transoceanic
08:47AM 32.6655 -135.2594 65° Northeast 452 520 39,000  Level FlightAware Transoceanic
08:48AM 32.7178 -135.1234 65° Northeast 452 520 39,000  Level FlightAware Transoceanic
08:49AM 32.7699 -134.9872 66° East 452 520 39,000  Level FlightAware Transoceanic
08:50AM 32.8219 -134.8509 66° East 452 520 39,000  Level FlightAware Transoceanic
08:51AM 32.8738 -134.7144 66° East 452 520 39,000  Level FlightAware Transoceanic
08:52AM 32.9255 -134.5777 66° East 452 520 39,000  Level FlightAware Transoceanic
08:53AM 32.9771 -134.4409 66° East 452 520 39,000  Level FlightAware Transoceanic
08:54AM 33.0285 -134.3039 66° East 452 520 39,000  Level FlightAware Transoceanic
08:55AM 33.0798 -134.1668 66° East 452 520 39,000  Level FlightAware Transoceanic
08:56AM 33.1309 -134.0295 66° East 452 520 39,000  Level FlightAware Transoceanic
08:57AM 33.1819 -133.8920 66° East 452 520 39,000  Level FlightAware Transoceanic
08:58AM 33.2327 -133.7544 66° East 452 520 39,000  Level FlightAware Transoceanic
08:58AM 33.2833 -133.6167 66° East 471 542 39,000  Level Oakland Oceanic (ODAPS)
08:59AM 33.2670 -133.6155 74° East  Level FlightAware Approximate
09:00AM 33.2323 -133.7543 253° West  Level FlightAware Approximate
09:01AM 33.2901 -133.6270 66° East  Level Estimated
09:02AM 33.3375 -133.4935 67° East  Level FlightAware Approximate
09:03AM 33.3847 -133.3600 67° East  Level FlightAware Approximate
09:04AM 33.6464 -132.6113 67° East 471 542 39,000  Level FlightAware Transoceanic
09:05AM 33.6976 -132.4669 67° East 471 542 39,000  Level FlightAware Transoceanic
09:06AM 33.7486 -132.3225 67° East 471 542 39,000  Level FlightAware Transoceanic
09:07AM 33.7995 -132.1778 67° East 471 542 39,000  Level FlightAware Transoceanic
09:08AM 33.8502 -132.0330 67° East 471 542 39,000  Level FlightAware Transoceanic
09:09AM 33.9007 -131.8880 67° East 471 542 39,000  Level FlightAware Transoceanic
09:10AM 33.9511 -131.7428 67° East 471 542 39,000  Level FlightAware Transoceanic
09:11AM 34.0012 -131.5974 67° East 471 542 39,000  Level FlightAware Transoceanic
09:12AM 34.0513 -131.4519 68° East 471 542 39,000  Level FlightAware Transoceanic
09:13AM 34.1011 -131.3062 68° East 471 542 39,000  Level FlightAware Transoceanic
09:14AM 34.1508 -131.1604 68° East 471 542 39,000  Level FlightAware Transoceanic
09:15AM 34.2003 -131.0144 68° East 471 542 39,000  Level FlightAware Transoceanic
09:16AM 34.2496 -130.8681 68° East 471 542 39,000  Level FlightAware Transoceanic
09:17AM 34.2987 -130.7218 68° East 471 542 39,000  Level FlightAware Transoceanic
09:18AM 34.3477 -130.5752 68° East 471 542 39,000  Level FlightAware Transoceanic
09:19AM 34.3965 -130.4285 68° East 471 542 39,000  Level FlightAware Transoceanic
09:20AM 34.4451 -130.2816 68° East 471 542 39,000  Level FlightAware Transoceanic
09:21AM 34.4936 -130.1346 68° East 471 542 39,000  Level FlightAware Transoceanic
09:22AM 34.5419 -129.9873 68° East 471 542 39,000  Level FlightAware Transoceanic
09:23AM 34.5900 -129.8399 68° East 471 542 39,000  Level FlightAware Transoceanic
09:24AM 34.6379 -129.6924 69° East 471 542 39,000  Level FlightAware Transoceanic
09:25AM 34.6856 -129.5446 69° East 471 542 39,000  Level FlightAware Transoceanic
09:26AM 34.7332 -129.3967 69° East 471 542 39,000  Level FlightAware Transoceanic
09:27AM 34.7806 -129.2486 69° East 471 542 39,000  Level FlightAware Transoceanic
09:28AM 34.8278 -129.1004 69° East 471 542 39,000  Level FlightAware Transoceanic
09:29AM 34.8748 -128.9520 69° East 471 542 39,000  Level FlightAware Transoceanic
09:30AM 34.9216 -128.8034 69° East 471 542 39,000  Level FlightAware Transoceanic
09:31AM 34.9683 -128.6546 69° East 471 542 39,000  Level FlightAware Transoceanic
09:32AM 35.0148 -128.5057 69° East 471 542 39,000  Level FlightAware Transoceanic
09:33AM 35.0611 -128.3566 69° East 471 542 39,000  Level FlightAware Transoceanic
09:34AM 35.1072 -128.2073 69° East 471 542 39,000  Level FlightAware Transoceanic
09:35AM 35.1531 -128.0579 69° East 471 542 39,000  Level FlightAware Transoceanic
09:36AM 35.1989 -127.9083 70° East 471 542 39,000  Level FlightAware Transoceanic
09:37AM 35.2444 -127.7585 70° East 471 542 39,000  Level FlightAware Transoceanic
09:38AM 35.2898 -127.6086 70° East 471 542 39,000  Level FlightAware Transoceanic
09:39AM 35.3350 -127.4585 70° East 471 542 39,000  Level FlightAware Transoceanic
09:40AM 35.3800 -127.3082 70° East 471 542 39,000  Level FlightAware Transoceanic
09:41AM 35.4248 -127.1578 70° East 471 542 39,000  Level FlightAware Transoceanic
09:42AM 35.4695 -127.0071 70° East 471 542 39,000  Level FlightAware Transoceanic
09:43AM 35.5139 -126.8564 70° East 471 542 39,000  Level FlightAware Transoceanic
09:44AM 35.5582 -126.7054 70° East 471 542 39,000  Level FlightAware Transoceanic
09:45AM 35.6022 -126.5543 70° East 471 542 39,000  Level FlightAware Transoceanic
09:45AM 35.6092 -126.5456 67° East 460 529 39,000  Level Oakland Center
09:46AM 35.6461 -126.4031 70° East 471 542 39,000 -120 Level FlightAware Transoceanic
09:46AM 35.6564 -126.3644 72° East 463 533 38,900  Descending Oakland Center
09:47AM 35.6898 -126.2516 70° East 471 542 39,000 60 Climbing FlightAware Transoceanic
09:47AM 35.6989 -126.2156 71° East 464 534 39,000  Level Oakland Center
09:48AM 35.7333 -126.1000 67° East 471 542 39,000  Level FlightAware Transoceanic
09:48AM 35.7444 -126.0667 69° East 465 535 39,000  Level Oakland Center
09:49AM 35.7841 -125.9526 67° East 471 542 39,000 -120 Level FlightAware Transoceanic
09:49AM 35.7975 -125.9197 66° East 470 541 38,900  Descending Oakland Center
09:50AM 35.8346 -125.8050 67° East 471 542 39,000  Climbing FlightAware Transoceanic
09:50AM 35.8650 -125.7797 59° Northeast 475 547 38,900  Descending Oakland Center
09:51AM 35.9353 -125.6469 57° Northeast 471 542 39,000  Climbing Oakland Center
09:52AM 36.0061 -125.5131 57° Northeast 469 540 39,000 -60 Level Oakland Center
09:53AM 36.0689 -125.3728 61° Northeast 468 539 38,900  Descending Oakland Center
09:54AM 36.1344 -125.2361 59° Northeast 463 533 39,000  Climbing Oakland Center
09:55AM 36.1994 -125.1006 59° Northeast 460 529 38,900  Descending Oakland Center
09:56AM 36.2672 -124.9650 58° Northeast 464 534 39,000  Climbing Oakland Center
09:57AM 36.3436 -124.8042 59° Northeast 454 522 39,000  Level Oakland Center
09:58AM 36.4103 -124.6686 59° Northeast 459 528 39,000  Level Oakland Center
09:59AM 36.4764 -124.5333 59° Northeast 460 529 39,000  Level Oakland Center
10:00AM 36.5419 -124.3956 59° Northeast 462 532 39,000  Level Oakland Center
10:01AM 36.6058 -124.2594 60° Northeast 457 526 39,000  Level Oakland Center
10:02AM 36.6719 -124.1211 59° Northeast 466 536 39,000 -360 Level Oakland Center
10:03AM 36.7372 -123.9836 59° Northeast 462 532 38,300 -1,920 Descending Oakland Center
10:04AM 36.8028 -123.8444 60° Northeast 466 536 35,100 -3,660 Descending Oakland Center
10:05AM 36.8678 -123.7039 60° Northeast 469 540 30,900 -3,480 Descending Oakland Center
10:11AM 37.2476 -122.8850 60° Northeast 377 434 10,400 -3,300 Descending FlightAware ADS-B
10:12AM 37.2558 -122.8640 64° Northeast 372 428 10,100 -1,200 Descending FlightAware ADS-B
10:12AM 37.2621 -122.8430 69° East 369 425 10,000 -300 Descending FlightAware ADS-B
10:12AM 37.2667 -122.8240 73° East 367 422 10,000  Level FlightAware ADS-B
10:12AM 37.2816 -122.7620 73° East 361 415 10,000  Level FlightAware ADS-B
10:13AM 37.2919 -122.7170 74° East 356 410 10,000  Level FlightAware ADS-B
10:13AM 37.2986 -122.6880 74° East 334 384 10,000  Level FlightAware ADS-B
10:13AM 37.3052 -122.6590 74° East 311 358 10,000 -420 Level FlightAware ADS-B
10:14AM 37.3115 -122.6310 74° East 291 335 9,800 -420 Descending FlightAware ADS-B
10:14AM 37.3173 -122.6070 73° East 270 311 9,800 -240 Level FlightAware ADS-B
10:14AM 37.3225 -122.5850 73° East 252 290 9,700 -780 Descending FlightAware ADS-B
10:14AM 37.3276 -122.5640 73° East 246 283 9,400 -1,320 Descending FlightAware ADS-B
10:15AM 37.3316 -122.5470 74° East 243 280 9,100 -1,320 Descending FlightAware ADS-B
10:15AM 37.3364 -122.5260 74° East 241 277 8,800 -1,500 Descending FlightAware ADS-B
10:15AM 37.3410 -122.5060 74° East 241 277 8,400 -1,680 Descending FlightAware ADS-B
10:15AM 37.3427 -122.5010 67° East 243 280 8,300 -1,500 Descending FlightAware ADS-B
10:15AM 37.3449 -122.4960 61° Northeast 244 281 8,200 -1,380 Descending FlightAware ADS-B
10:15AM 37.3475 -122.4910 57° Northeast 244 281 8,100 -1,380 Descending FlightAware ADS-B
10:16AM 37.3561 -122.4770 52° Northeast 242 278 7,800 -1,500 Descending FlightAware ADS-B
10:16AM 37.3668 -122.4580 55° Northeast 242 278 7,400 -1,620 Descending FlightAware ADS-B
10:16AM 37.3759 -122.4420 54° Northeast 242 278 7,000 -1,500 Descending FlightAware ADS-B
10:16AM 37.3855 -122.4240 56° Northeast 239 275 6,700 -1,320 Descending FlightAware ADS-B
10:17AM 37.3938 -122.4090 55° Northeast 237 273 6,400 -1,080 Descending FlightAware ADS-B
10:17AM 37.4032 -122.3920 55° Northeast 234 269 6,200 -780 Descending FlightAware ADS-B
10:17AM 37.4128 -122.3750 55° Northeast 233 268 6,000 -420 Descending FlightAware ADS-B
10:17AM 37.4213 -122.3600 54° Northeast 231 266 6,000  Level FlightAware ADS-B
10:17AM 37.4242 -122.3540 59° Northeast 231 266 6,000  Level FlightAware ADS-B
10:17AM 37.4265 -122.3480 64° Northeast 231 266 6,000  Level FlightAware ADS-B
10:18AM 37.4276 -122.3420 77° East 234 269 6,000  Level FlightAware ADS-B
10:18AM 37.4280 -122.3360 85° East 236 272 6,000  Level FlightAware ADS-B
10:18AM 37.4277 -122.3320 95° East 237 273 6,000  Level FlightAware ADS-B
10:18AM 37.4271 -122.3270 99° East 237 273 6,000  Level FlightAware ADS-B
10:18AM 37.4259 -122.3210 104° East 237 273 6,000  Level FlightAware ADS-B
10:18AM 37.4243 -122.3130 104° East 236 272 6,000  Level FlightAware ADS-B
10:18AM 37.4235 -122.3080 101° East 236 272 6,000 -900 Level FlightAware ADS-B
10:18AM 37.4213 -122.2870 98° East 235 270 5,700 -1,140 Descending FlightAware ADS-B
10:19AM 37.4186 -122.2580 97° East 234 269 5,300 -1,260 Descending FlightAware ADS-B
10:19AM 37.4176 -122.2470 97° East 232 267 5,100 -1,440 Descending FlightAware ADS-B
10:19AM 37.4173 -122.2400 93° East 231 266 5,000 -600 Descending FlightAware ADS-B
10:19AM 37.4174 -122.2340 89° East 229 264 5,000 -480 Level FlightAware ADS-B
10:19AM 37.4189 -122.2080 86° East 220 253 4,800 -720 Descending FlightAware ADS-B
10:19AM 37.4200 -122.1900 86° East 200 230 4,600 -900 Descending FlightAware ADS-B
10:20AM 37.4206 -122.1850 81° East 198 228 4,500 -1,500 Descending FlightAware ADS-B
10:20AM 37.4214 -122.1810 76° East 198 228 4,400 -900 Descending FlightAware ADS-B
10:20AM 37.4226 -122.1780 63° Northeast 198 228 4,400  Level FlightAware ADS-B
10:20AM 37.4241 -122.1740 65° Northeast 197 227 4,400 -900 Level FlightAware ADS-B
10:20AM 37.4263 -122.1710 47° Northeast 198 228 4,300 -1,500 Descending FlightAware ADS-B
10:20AM 37.4288 -122.1680 44° Northeast 198 228 4,200 -900 Descending FlightAware ADS-B
10:20AM 37.4313 -122.1660 32° Northeast 198 228 4,200 -900 Level FlightAware ADS-B
10:20AM 37.4344 -122.1640 27° Northeast 198 228 4,100 -840 Descending FlightAware ADS-B
10:20AM 37.4435 -122.1590 24° Northeast 197 227 4,000 -240 Descending FlightAware ADS-B
10:20AM 37.4563 -122.1510 26° Northeast 196 226 4,000 -420 Level FlightAware ADS-B
10:21AM 37.4692 -122.1440 23° Northeast 197 227 3,800 -1,080 Descending FlightAware ADS-B
10:21AM 37.4794 -122.1380 25° Northeast 200 230 3,500 -1,200 Descending FlightAware ADS-B
10:21AM 37.4824 -122.1370 15° North 201 231 3,500 -900 Level FlightAware ADS-B
10:21AM 37.4861 -122.1360 12° North 203 234 3,400 -1,500 Descending FlightAware ADS-B
10:21AM 37.4899 -122.1350 12° North 202 232 3,300 -1,500 Descending FlightAware ADS-B
10:21AM 37.4936 -122.1360 348° North 203 234 3,200 -780 Descending FlightAware ADS-B
10:21AM 37.4967 -122.1370 346° North 203 234 3,200 -900 Level FlightAware ADS-B
10:21AM 37.4998 -122.1380 346° North 203 234 3,100 -1,020 Descending FlightAware ADS-B
10:21AM 37.5023 -122.1400 328° Northwest 202 232 3,100 -780 Level FlightAware ADS-B
10:21AM 37.5057 -122.1430 325° Northwest 199 229 3,000 -600 Descending FlightAware ADS-B
10:22AM 37.5166 -122.1520 327° Northwest 193 222 2,900 -240 Descending FlightAware ADS-B
10:22AM 37.5253 -122.1600 324° Northwest 185 213 2,900 -420 Level FlightAware ADS-B
10:22AM 37.5273 -122.1630 310° West 187 215 2,800 -1,020 Descending FlightAware ADS-B
10:22AM 37.5291 -122.1650 319° Northwest 188 216 2,800  Level FlightAware ADS-B
10:22AM 37.5314 -122.1690 306° West 190 219 2,800 -780 Level FlightAware ADS-B
10:22AM 37.5330 -122.1720 304° West 190 219 2,700 -1,140 Descending FlightAware ADS-B
10:22AM 37.5363 -122.1800 297° West 190 219 2,600 -540 Descending FlightAware ADS-B
10:22AM 37.5428 -122.1950 299° West 189 217 2,500 -600 Descending FlightAware ADS-B
10:23AM 37.5456 -122.2020 297° West 189 217 2,400 -840 Descending FlightAware ADS-B
10:23AM 37.5519 -122.2160 300° West 188 216 2,200 -600 Descending FlightAware ADS-B
10:23AM 37.5576 -122.2300 297° West 187 215 2,100 -660 Descending FlightAware ADS-B
10:23AM 37.5627 -122.2420 298° West 183 211 1,900 -720 Descending FlightAware ADS-B
10:23AM 37.5678 -122.2540 298° West 177 204 1,800 -720 Descending FlightAware ADS-B
10:24AM 37.5732 -122.2670 298° West 175 201 1,600 -840 Descending FlightAware ADS-B
10:24AM 37.5790 -122.2810 298° West 166 191 1,400 -900 Descending FlightAware ADS-B
10:24AM 37.5834 -122.2910 299° West 152 175 1,200 -840 Descending FlightAware ADS-B
10:24AM 37.5883 -122.3030 297° West 144 166 1,000 -780 Descending FlightAware ADS-B
10:25AM 37.5935 -122.3150 299° West 140 161 800 -780 Descending FlightAware ADS-B
10:25AM 37.5984 -122.3270 297° West 137 158 600 -720 Descending FlightAware ADS-B
10:25AM 37.6014 -122.3340 298° West 137 158 500 -660 Descending FlightAware ADS-B
10:25AM 37.6040 -122.3400 299° West 136 157 400 -780 Descending FlightAware ADS-B
10:25AM 37.6061 -122.3450 298° West 135 155 300 -840 Descending FlightAware ADS-B
10:26AM 37.6108 -122.3560 298° West 134 154 100 -780 Descending FlightAware ADS-B
10:34AM 37.6167 -122.3667 North  Level FlightAware Approximate
10:35AM 37.6191 -122.3752 North  Level Estimated